createdAt,value
2023-12-15T00:05:16.043Z,1.50
2023-12-15T00:15:20.736Z,1.50
2023-12-15T00:25:23.987Z,1.60
2023-12-15T00:35:28.800Z,1.50
2023-12-15T00:45:32.048Z,1.30
2023-12-15T00:55:36.697Z,1.40
2023-12-15T01:05:39.955Z,1.40
2023-12-15T01:15:44.588Z,1.30
2023-12-15T01:25:48.095Z,1.30
2023-12-15T01:35:52.979Z,1.10
2023-12-15T01:46:04.931Z,1.10
2023-12-15T01:56:14.100Z,0.90
2023-12-15T02:06:17.454Z,0.70
2023-12-15T02:16:22.047Z,0.80
2023-12-15T02:26:26.781Z,0.50
2023-12-15T02:36:30.106Z,0.60
2023-12-15T02:46:38.471Z,0.40
2023-12-15T02:56:41.769Z,0.30
2023-12-15T03:06:46.415Z,1.10
2023-12-15T03:16:49.638Z,0.40
2023-12-15T03:26:54.266Z,0.60
2023-12-15T03:36:57.558Z,0.40
2023-12-15T03:47:02.256Z,0.30
2023-12-15T03:57:06.137Z,0.20
2023-12-15T04:07:10.726Z,0.30
2023-12-15T04:17:13.967Z,0.40
2023-12-15T04:27:18.608Z,0.10
2023-12-15T04:37:22.052Z,0.10
2023-12-15T04:47:26.668Z,0.10
2023-12-15T04:57:29.939Z,-0.10
2023-12-15T05:07:34.690Z,-1.20
2023-12-15T05:17:38.847Z,-1.30
2023-12-15T05:27:43.808Z,-1.00
2023-12-15T05:37:47.114Z,-0.90
2023-12-15T05:47:51.816Z,-0.90
2023-12-15T05:57:55.248Z,-0.90
2023-12-15T06:08:00.379Z,-1.00
2023-12-15T06:18:06.153Z,-0.90
2023-12-15T06:28:11.458Z,-1.00
2023-12-15T06:38:14.808Z,-1.00
2023-12-15T06:48:19.487Z,-1.00
2023-12-15T06:58:22.867Z,-1.00
2023-12-15T07:08:28.866Z,-0.90
2023-12-15T07:18:34.122Z,-1.00
2023-12-15T07:28:38.817Z,-0.80
2023-12-15T07:38:42.096Z,-0.90
2023-12-15T07:48:46.911Z,-0.70
2023-12-15T07:58:51.203Z,-0.40
2023-12-15T08:08:55.896Z,-0.30
2023-12-15T08:18:59.344Z,-0.20
2023-12-15T08:29:04.002Z,0.00
2023-12-15T08:39:07.277Z,0.10
2023-12-15T08:49:11.931Z,0.10
2023-12-15T08:59:15.323Z,0.40
2023-12-15T09:09:25.364Z,0.90
2023-12-15T09:19:29.104Z,1.00
2023-12-15T09:29:39.018Z,1.10
2023-12-15T09:39:43.655Z,1.50
2023-12-15T09:49:53.218Z,1.70
2023-12-15T09:59:56.457Z,2.10
2023-12-15T10:10:01.112Z,3.00
2023-12-15T10:20:10.050Z,2.60
2023-12-15T10:30:15.342Z,2.10
2023-12-15T10:40:19.814Z,2.50
2023-12-15T10:50:25.747Z,3.00
2023-12-15T11:00:29.443Z,5.50
2023-12-15T11:10:34.329Z,5.10
2023-12-15T11:20:42.738Z,4.30
2023-12-15T11:30:50.069Z,3.80
2023-12-15T11:40:54.292Z,4.40
2023-12-15T11:50:59.188Z,4.20
2023-12-15T12:01:02.437Z,3.40
2023-12-15T12:11:10.129Z,2.50
2023-12-15T12:21:14.259Z,2.50
2023-12-15T12:31:19.120Z,1.20
2023-12-15T12:41:22.504Z,1.10
2023-12-15T12:51:28.793Z,1.00
2023-12-15T13:01:32.076Z,1.10
2023-12-15T13:11:37.009Z,1.10
2023-12-15T13:21:40.614Z,1.10
2023-12-15T13:31:45.248Z,0.90
2023-12-15T13:41:49.835Z,0.80
2023-12-15T13:51:54.444Z,0.60
2023-12-15T14:01:57.818Z,0.70
2023-12-15T14:12:02.529Z,0.60
2023-12-15T14:22:08.528Z,0.50
2023-12-15T14:32:13.277Z,0.20
2023-12-15T14:42:16.713Z,-0.20
2023-12-15T14:52:21.305Z,-0.20
2023-12-15T15:02:24.601Z,0.30
2023-12-15T15:12:29.307Z,0.00
2023-12-15T15:22:32.668Z,-0.40
2023-12-15T15:32:38.215Z,-0.50
2023-12-15T15:42:41.842Z,-0.70
2023-12-15T15:52:46.409Z,-0.50
2023-12-15T16:02:50.657Z,-0.60
2023-12-15T16:12:55.522Z,-0.60
2023-12-15T16:22:58.762Z,-1.30
2023-12-15T16:33:04.114Z,-0.70
2023-12-15T16:43:07.427Z,-2.00
2023-12-15T16:53:12.140Z,-1.60
2023-12-15T17:03:16.183Z,-1.90
2023-12-15T17:13:20.920Z,-2.50
2023-12-15T17:23:24.138Z,-3.50
2023-12-15T17:33:28.745Z,-3.30
2023-12-15T17:43:31.972Z,-2.40
2023-12-15T17:53:36.632Z,-4.10
2023-12-15T18:03:40.053Z,-4.10
2023-12-15T18:13:44.684Z,-4.30
2023-12-15T18:23:47.967Z,-4.20
2023-12-15T18:33:52.770Z,-4.10
2023-12-15T18:43:56.635Z,-3.30
2023-12-15T18:54:02.021Z,-3.10
2023-12-15T19:04:05.333Z,-2.60
2023-12-15T19:14:10.813Z,-2.70
2023-12-15T19:24:15.181Z,-2.80
2023-12-15T19:34:20.071Z,-2.40
2023-12-15T19:44:23.575Z,-2.20
2023-12-15T19:54:28.210Z,-1.80
2023-12-15T20:04:32.120Z,-1.60
2023-12-15T20:14:36.846Z,-1.70
2023-12-15T20:24:40.301Z,-1.60
2023-12-15T20:34:45.405Z,-1.50
2023-12-15T20:44:49.120Z,-1.20
2023-12-15T20:54:53.884Z,-1.40
2023-12-15T21:04:57.181Z,-1.20
2023-12-15T21:15:01.800Z,-1.30
2023-12-15T21:25:08.484Z,-1.20
2023-12-15T21:35:15.156Z,-1.10
2023-12-15T21:45:18.786Z,-1.10
2023-12-15T21:55:23.567Z,-1.50
2023-12-15T22:05:27.138Z,-0.20
2023-12-15T22:15:31.827Z,-2.20
2023-12-15T22:25:35.135Z,-2.80
2023-12-15T22:35:40.260Z,-2.80
2023-12-15T22:45:43.962Z,-3.30
2023-12-15T22:55:48.653Z,-3.30
2023-12-15T23:05:52.016Z,-3.00
2023-12-15T23:15:56.778Z,-2.40
2023-12-15T23:26:00.717Z,-2.50
2023-12-15T23:36:12.338Z,-2.10
2023-12-15T23:46:15.580Z,-2.10
2023-12-15T23:56:20.256Z,-2.00
